PWSweather.com
Personal Weather Stations
Station Observations
WESTON01
WestonSuperMareGB BS22 8RT

WestonSuperMareGB BS22 8RT

Lat: 51.351508, Lon: -2.933373

Elevation: 15

Station Type: Fine Offset WH1080

http://www.westonweather.co.uk

High Low Average
Temperature 56.8°F13.8°C 48.3°F9.1°C 51.3°F10.7°C
Dew Point 52.6°F11.4°C 43.4°F6.3°C 48.0°F8.9°C
Winds 12.6 mph 20.3 kmh 2.4 mph 3.9 kmh 7.0 mph ESE11.3 kmh ESE
Wind Gusts 18.4 mph29.6 kmh 4.2 mph6.8 kmh 11.0 mph17.7 kmh
Humidity 95% 82% 89%
Pressure 29.76 in1007.8 mb 29.65 in1004.1 mb -
Precipitation 0.50 in12.7 mm - -
Hour Temp Dew Point Humidity Winds Wind Gusts Pressure Precip Precip Rate Daily Precip Total
12:00 AM 56.8°F13.8°C 52.3°F11.3°C 85% 7.0 mph S11.3 kmh S 11.3 mph18.2 kmh 29.65 in1004.1 mb 0.00 in0.0 mm 0.00 in0.0 mm 0.00 in0.0 mm
12:05 AM 56.8°F13.8°C 52.3°F11.3°C 85% 8.2 mph SSW13.2 kmh SSW 11.3 mph18.2 kmh 29.68 in1005.1 mb 0.00 in0.0 mm 0.00 in0.0 mm 0.00 in0.0 mm
12:10 AM 56.8°F13.8°C 52.6°F11.4°C 86% 7.8 mph SSW12.6 kmh SSW 11.3 mph18.2 kmh 29.68 in1005.1 mb 0.00 in0.0 mm 0.00 in0.0 mm 0.00 in0.0 mm
12:15 AM 56.8°F13.8°C 52.6°F11.4°C 86% 6.5 mph SW10.5 kmh SW 10.4 mph16.7 kmh 29.68 in1005.1 mb 0.00 in0.0 mm 0.00 in0.0 mm 0.00 in0.0 mm
12:20 AM 56.8°F13.8°C 52.6°F11.4°C 86% 5.6 mph WSW9.0 kmh WSW 8.6 mph13.8 kmh 29.68 in1005.1 mb 0.00 in0.0 mm 0.00 in0.0 mm 0.00 in0.0 mm
12:25 AM 56.6°F13.7°C 52.4°F11.3°C 86% 7.0 mph WSW11.3 kmh WSW 10.4 mph16.7 kmh 29.68 in1005.1 mb 0.00 in0.0 mm 0.00 in0.0 mm 0.00 in0.0 mm
12:30 AM 56.6°F13.7°C 52.4°F11.3°C 86% 8.9 mph W14.3 kmh W 11.6 mph18.7 kmh 29.68 in1005.1 mb 0.00 in0.0 mm 0.00 in0.0 mm 0.00 in0.0 mm
12:35 AM 56.6°F13.7°C 52.4°F11.3°C 86% 7.6 mph W12.2 kmh W 11.6 mph18.7 kmh 29.68 in1005.1 mb 0.00 in0.0 mm 0.00 in0.0 mm 0.00 in0.0 mm
12:40 AM 56.6°F13.7°C 52.4°F11.3°C 86% 6.1 mph WSW9.8 kmh WSW 11.6 mph18.7 kmh 29.68 in1005.1 mb 0.00 in0.0 mm 0.00 in0.0 mm 0.00 in0.0 mm
12:45 AM 56.4°F13.6°C 52.3°F11.3°C 86% 4.6 mph SW7.4 kmh SW 7.4 mph11.9 kmh 29.68 in1005.1 mb 0.00 in0.0 mm 0.00 in0.0 mm 0.00 in0.0 mm
12:50 AM 56.4°F13.6°C 52.3°F11.3°C 86% 4.5 mph SW7.2 kmh SW 7.7 mph12.4 kmh 29.68 in1005.1 mb 0.00 in0.0 mm 0.00 in0.0 mm 0.00 in0.0 mm
12:55 AM 56.4°F13.6°C 51.9°F11.1°C 85% 4.1 mph WSW6.6 kmh WSW 7.7 mph12.4 kmh 29.68 in1005.1 mb 0.00 in0.0 mm 0.00 in0.0 mm 0.00 in0.0 mm
01:00 AM 56.2°F13.4°C 51.8°F11.0°C 85% 4.4 mph WSW7.1 kmh WSW 8.0 mph12.9 kmh 29.68 in1005.1 mb 0.00 in0.0 mm 0.00 in0.0 mm 0.00 in0.0 mm
01:05 AM 56.2°F13.4°C 51.8°F11.0°C 85% 5.0 mph WSW8.0 kmh WSW 8.0 mph12.9 kmh 29.68 in1005.1 mb 0.00 in0.0 mm 0.00 in0.0 mm 0.00 in0.0 mm
01:10 AM 56.2°F13.4°C 52.1°F11.2°C 86% 5.1 mph WSW8.2 kmh WSW 6.0 mph9.7 kmh 29.68 in1005.1 mb 0.00 in0.0 mm 0.00 in0.0 mm 0.00 in0.0 mm
01:15 AM 56.0°F13.3°C 51.9°F11.1°C 86% 4.4 mph WSW7.1 kmh WSW 5.7 mph9.2 kmh 29.68 in1005.1 mb 0.00 in0.0 mm 0.00 in0.0 mm 0.00 in0.0 mm
01:20 AM 56.0°F13.3°C 51.9°F11.1°C 86% 3.9 mph SW6.3 kmh SW 5.7 mph9.2 kmh 29.68 in1005.1 mb 0.00 in0.0 mm 0.00 in0.0 mm 0.00 in0.0 mm
01:25 AM 55.8°F13.2°C 51.7°F10.9°C 86% 4.1 mph WSW6.6 kmh WSW 6.5 mph10.5 kmh 29.68 in1005.1 mb 0.00 in0.0 mm 0.00 in0.0 mm 0.00 in0.0 mm
01:30 AM 55.7°F13.2°C 51.5°F10.8°C 86% 3.6 mph WSW5.8 kmh WSW 6.5 mph10.5 kmh 29.68 in1005.1 mb 0.04 in1.0 mm 0.48 in12.2 mm 0.04 in1.0 mm
01:35 AM 55.7°F13.2°C 51.9°F11.1°C 87% 3.6 mph WSW5.8 kmh WSW 6.5 mph10.5 kmh 29.68 in1005.1 mb 0.04 in1.0 mm 0.00 in0.0 mm 0.04 in1.0 mm
01:40 AM 55.5°F13.1°C 51.7°F10.9°C 87% 4.7 mph WSW7.6 kmh WSW 7.7 mph12.4 kmh 29.68 in1005.1 mb 0.04 in1.0 mm 0.00 in0.0 mm 0.04 in1.0 mm
01:45 AM 55.3°F12.9°C 51.5°F10.8°C 87% 5.6 mph W9.0 kmh W 7.7 mph12.4 kmh 29.68 in1005.1 mb 0.04 in1.0 mm 0.00 in0.0 mm 0.04 in1.0 mm
01:50 AM 55.3°F12.9°C 51.5°F10.8°C 87% 5.9 mph W9.5 kmh W 7.7 mph12.4 kmh 29.68 in1005.1 mb 0.04 in1.0 mm 0.00 in0.0 mm 0.04 in1.0 mm
01:55 AM 55.3°F12.9°C 51.5°F10.8°C 87% 6.0 mph WSW9.7 kmh WSW 9.8 mph15.8 kmh 29.68 in1005.1 mb 0.04 in1.0 mm 0.00 in0.0 mm 0.04 in1.0 mm
02:00 AM 55.3°F12.9°C 51.5°F10.8°C 87% 6.3 mph WSW10.1 kmh WSW 9.8 mph15.8 kmh 29.68 in1005.1 mb 0.04 in1.0 mm 0.00 in0.0 mm 0.04 in1.0 mm
02:05 AM 55.1°F12.8°C 51.3°F10.7°C 87% 6.3 mph W10.1 kmh W 8.3 mph13.4 kmh 29.68 in1005.1 mb 0.04 in1.0 mm 0.00 in0.0 mm 0.04 in1.0 mm
02:10 AM 55.1°F12.8°C 51.3°F10.7°C 87% 6.7 mph W10.8 kmh W 8.3 mph13.4 kmh 29.68 in1005.1 mb 0.04 in1.0 mm 0.00 in0.0 mm 0.04 in1.0 mm
02:15 AM 55.0°F12.8°C 51.2°F10.7°C 87% 7.1 mph W11.4 kmh W 9.5 mph15.3 kmh 29.68 in1005.1 mb 0.04 in1.0 mm 0.00 in0.0 mm 0.04 in1.0 mm
02:20 AM 55.0°F12.8°C 51.2°F10.7°C 87% 7.0 mph W11.3 kmh W 9.5 mph15.3 kmh 29.68 in1005.1 mb 0.04 in1.0 mm 0.00 in0.0 mm 0.04 in1.0 mm
02:25 AM 54.8°F12.7°C 51.0°F10.6°C 87% 6.3 mph W10.1 kmh W 9.5 mph15.3 kmh 29.68 in1005.1 mb 0.04 in1.0 mm 0.00 in0.0 mm 0.04 in1.0 mm
02:30 AM 54.8°F12.7°C 51.0°F10.6°C 87% 6.2 mph WNW10.0 kmh WNW 9.5 mph15.3 kmh 29.68 in1005.1 mb 0.00 in0.0 mm 0.00 in0.0 mm 0.04 in1.0 mm
02:35 AM 54.6°F12.6°C 50.8°F10.4°C 87% 6.5 mph WNW10.5 kmh WNW 8.0 mph12.9 kmh 29.68 in1005.1 mb 0.00 in0.0 mm 0.00 in0.0 mm 0.04 in1.0 mm
02:40 AM 54.6°F12.6°C 50.8°F10.4°C 87% 6.0 mph WNW9.7 kmh WNW 8.6 mph13.8 kmh 29.68 in1005.1 mb 0.00 in0.0 mm 0.00 in0.0 mm 0.04 in1.0 mm
02:45 AM 54.6°F12.6°C 50.8°F10.4°C 87% 6.1 mph WNW9.8 kmh WNW 8.6 mph13.8 kmh 29.68 in1005.1 mb 0.00 in0.0 mm 0.00 in0.0 mm 0.04 in1.0 mm
02:50 AM 54.4°F12.4°C 50.6°F10.3°C 87% 5.5 mph W8.9 kmh W 8.0 mph12.9 kmh 29.68 in1005.1 mb 0.00 in0.0 mm 0.00 in0.0 mm 0.04 in1.0 mm
02:55 AM 54.4°F12.4°C 50.6°F10.3°C 87% 4.9 mph NW7.9 kmh NW 9.8 mph15.8 kmh 29.68 in1005.1 mb 0.00 in0.0 mm 0.00 in0.0 mm 0.04 in1.0 mm
03:00 AM 54.2°F12.3°C 50.4°F10.2°C 87% 4.6 mph NW7.4 kmh NW 9.8 mph15.8 kmh 29.68 in1005.1 mb 0.00 in0.0 mm 0.00 in0.0 mm 0.04 in1.0 mm
03:05 AM 54.0°F12.2°C 50.3°F10.2°C 87% 4.9 mph NW7.9 kmh NW 7.7 mph12.4 kmh 29.68 in1005.1 mb 0.00 in0.0 mm 0.00 in0.0 mm 0.04 in1.0 mm
03:10 AM 53.9°F12.2°C 50.1°F10.1°C 87% 6.0 mph NW9.7 kmh NW 10.4 mph16.7 kmh 29.68 in1005.1 mb 0.00 in0.0 mm 0.00 in0.0 mm 0.04 in1.0 mm
03:15 AM 53.7°F12.1°C 49.9°F9.9°C 87% 5.7 mph WNW9.2 kmh WNW 10.4 mph16.7 kmh 29.68 in1005.1 mb 0.00 in0.0 mm 0.00 in0.0 mm 0.04 in1.0 mm
03:20 AM 53.7°F12.1°C 49.9°F9.9°C 87% 4.8 mph WNW7.7 kmh WNW 7.1 mph11.4 kmh 29.68 in1005.1 mb 0.00 in0.0 mm 0.00 in0.0 mm 0.04 in1.0 mm
03:25 AM 53.3°F11.8°C 49.6°F9.8°C 87% 3.8 mph WNW6.1 kmh WNW 5.1 mph8.2 kmh 29.68 in1005.1 mb 0.00 in0.0 mm 0.00 in0.0 mm 0.04 in1.0 mm
03:30 AM 53.3°F11.8°C 49.6°F9.8°C 87% 2.5 mph WNW4.0 kmh WNW 5.1 mph8.2 kmh 29.68 in1005.1 mb 0.00 in0.0 mm 0.00 in0.0 mm 0.04 in1.0 mm
03:35 AM 53.2°F11.8°C 49.4°F9.7°C 87% 2.4 mph WNW3.9 kmh WNW 4.5 mph7.2 kmh 29.68 in1005.1 mb 0.00 in0.0 mm 0.00 in0.0 mm 0.04 in1.0 mm
03:40 AM 53.2°F11.8°C 49.7°F9.8°C 88% 3.3 mph WNW5.3 kmh WNW 5.4 mph8.7 kmh 29.68 in1005.1 mb 0.00 in0.0 mm 0.00 in0.0 mm 0.04 in1.0 mm
03:45 AM 53.2°F11.8°C 49.7°F9.8°C 88% 3.4 mph WNW5.5 kmh WNW 5.4 mph8.7 kmh 29.68 in1005.1 mb 0.00 in0.0 mm 0.00 in0.0 mm 0.04 in1.0 mm
03:50 AM 53.0°F11.7°C 49.5°F9.7°C 88% 3.5 mph NW5.6 kmh NW 4.8 mph7.7 kmh 29.65 in1004.1 mb 0.00 in0.0 mm 0.00 in0.0 mm 0.04 in1.0 mm
03:55 AM 53.0°F11.7°C 49.5°F9.7°C 88% 4.2 mph NNW6.8 kmh NNW 5.7 mph9.2 kmh 29.65 in1004.1 mb 0.00 in0.0 mm 0.00 in0.0 mm 0.04 in1.0 mm
04:00 AM 52.8°F11.6°C 49.3°F9.6°C 88% 4.8 mph NNW7.7 kmh NNW 8.6 mph13.8 kmh 29.65 in1004.1 mb 0.00 in0.0 mm 0.00 in0.0 mm 0.04 in1.0 mm
04:05 AM 52.8°F11.6°C 49.3°F9.6°C 88% 4.2 mph NW6.8 kmh NW 8.6 mph13.8 kmh 29.68 in1005.1 mb 0.00 in0.0 mm 0.00 in0.0 mm 0.04 in1.0 mm
04:10 AM 52.8°F11.6°C 49.6°F9.8°C 89% 3.3 mph NW5.3 kmh NW 5.4 mph8.7 kmh 29.68 in1005.1 mb 0.00 in0.0 mm 0.00 in0.0 mm 0.04 in1.0 mm
04:15 AM 52.8°F11.6°C 49.6°F9.8°C 89% 3.8 mph NW6.1 kmh NW 5.4 mph8.7 kmh 29.68 in1005.1 mb 0.00 in0.0 mm 0.00 in0.0 mm 0.04 in1.0 mm
04:20 AM 52.8°F11.6°C 49.6°F9.8°C 89% 4.3 mph NNW6.9 kmh NNW 6.5 mph10.5 kmh 29.65 in1004.1 mb 0.04 in1.0 mm 0.48 in12.2 mm 0.08 in2.0 mm
04:25 AM 52.6°F11.4°C 49.5°F9.7°C 89% 5.0 mph NNW8.0 kmh NNW 6.5 mph10.5 kmh 29.65 in1004.1 mb 0.04 in1.0 mm 0.00 in0.0 mm 0.08 in2.0 mm
04:35 AM 52.6°F11.4°C 49.5°F9.7°C 89% 4.2 mph NNW6.8 kmh NNW 8.0 mph12.9 kmh 29.65 in1004.1 mb 0.04 in1.0 mm 0.00 in0.0 mm 0.08 in2.0 mm
04:40 AM 52.4°F11.3°C 49.3°F9.6°C 89% 3.6 mph NNW5.8 kmh NNW 4.2 mph6.8 kmh 29.65 in1004.1 mb 0.04 in1.0 mm 0.00 in0.0 mm 0.08 in2.0 mm
04:45 AM 52.4°F11.3°C 49.3°F9.6°C 89% 4.6 mph NNW7.4 kmh NNW 9.5 mph15.3 kmh 29.65 in1004.1 mb 0.04 in1.0 mm 0.00 in0.0 mm 0.08 in2.0 mm
04:50 AM 52.4°F11.3°C 49.6°F9.8°C 90% 4.8 mph NNW7.7 kmh NNW 9.5 mph15.3 kmh 29.65 in1004.1 mb 0.04 in1.0 mm 0.00 in0.0 mm 0.08 in2.0 mm
04:55 AM 52.3°F11.3°C 49.4°F9.7°C 90% 3.8 mph N6.1 kmh N 6.2 mph10.0 kmh 29.65 in1004.1 mb 0.04 in1.0 mm 0.00 in0.0 mm 0.08 in2.0 mm
05:00 AM 52.3°F11.3°C 49.4°F9.7°C 90% 3.5 mph NNW5.6 kmh NNW 8.3 mph13.4 kmh 29.65 in1004.1 mb 0.04 in1.0 mm 0.00 in0.0 mm 0.08 in2.0 mm
05:05 AM 52.3°F11.3°C 49.4°F9.7°C 90% 4.2 mph NNW6.8 kmh NNW 8.3 mph13.4 kmh 29.65 in1004.1 mb 0.04 in1.0 mm 0.00 in0.0 mm 0.08 in2.0 mm
05:10 AM 52.3°F11.3°C 49.4°F9.7°C 90% 5.6 mph N9.0 kmh N 8.3 mph13.4 kmh 29.65 in1004.1 mb 0.04 in1.0 mm 0.00 in0.0 mm 0.08 in2.0 mm
05:15 AM 52.4°F11.3°C 49.6°F9.8°C 90% 6.7 mph N10.8 kmh N 8.3 mph13.4 kmh 29.65 in1004.1 mb 0.04 in1.0 mm 0.00 in0.0 mm 0.08 in2.0 mm
05:20 AM 52.4°F11.3°C 49.6°F9.8°C 90% 5.8 mph N9.3 kmh N 8.3 mph13.4 kmh 29.65 in1004.1 mb 0.00 in0.0 mm 0.00 in0.0 mm 0.08 in2.0 mm
05:25 AM 52.4°F11.3°C 49.6°F9.8°C 90% 4.6 mph N7.4 kmh N 5.4 mph8.7 kmh 29.65 in1004.1 mb 0.00 in0.0 mm 0.00 in0.0 mm 0.08 in2.0 mm
05:30 AM 52.4°F11.3°C 49.6°F9.8°C 90% 5.4 mph N8.7 kmh N 8.6 mph13.8 kmh 29.65 in1004.1 mb 0.00 in0.0 mm 0.00 in0.0 mm 0.08 in2.0 mm
05:35 AM 52.4°F11.3°C 49.6°F9.8°C 90% 6.6 mph N10.6 kmh N 10.7 mph17.2 kmh 29.65 in1004.1 mb 0.00 in0.0 mm 0.00 in0.0 mm 0.08 in2.0 mm
05:40 AM 52.3°F11.3°C 49.7°F9.8°C 91% 6.7 mph N10.8 kmh N 10.7 mph17.2 kmh 29.65 in1004.1 mb 0.00 in0.0 mm 0.00 in0.0 mm 0.08 in2.0 mm
05:45 AM 52.1°F11.2°C 49.5°F9.7°C 91% 6.2 mph N10.0 kmh N 10.4 mph16.7 kmh 29.65 in1004.1 mb 0.04 in1.0 mm 0.48 in12.2 mm 0.12 in3.0 mm
05:50 AM 52.1°F11.2°C 49.5°F9.7°C 91% 5.7 mph NNE9.2 kmh NNE 10.7 mph17.2 kmh 29.65 in1004.1 mb 0.04 in1.0 mm 0.00 in0.0 mm 0.12 in3.0 mm
05:55 AM 51.9°F11.1°C 49.3°F9.6°C 91% 5.9 mph NE9.5 kmh NE 10.7 mph17.2 kmh 29.65 in1004.1 mb 0.04 in1.0 mm 0.00 in0.0 mm 0.12 in3.0 mm
06:00 AM 51.9°F11.1°C 49.3°F9.6°C 91% 6.6 mph NE10.6 kmh NE 10.7 mph17.2 kmh 29.65 in1004.1 mb 0.04 in1.0 mm 0.00 in0.0 mm 0.12 in3.0 mm
06:05 AM 51.9°F11.1°C 49.3°F9.6°C 91% 7.0 mph NE11.3 kmh NE 9.5 mph15.3 kmh 29.65 in1004.1 mb 0.04 in1.0 mm 0.00 in0.0 mm 0.12 in3.0 mm
06:10 AM 51.7°F10.9°C 49.2°F9.6°C 91% 6.7 mph NNE10.8 kmh NNE 9.5 mph15.3 kmh 29.65 in1004.1 mb 0.04 in1.0 mm 0.00 in0.0 mm 0.12 in3.0 mm
06:15 AM 51.7°F10.9°C 49.2°F9.6°C 91% 5.3 mph N8.5 kmh N 7.7 mph12.4 kmh 29.65 in1004.1 mb 0.04 in1.0 mm 0.00 in0.0 mm 0.12 in3.0 mm
06:20 AM 51.5°F10.8°C 49.0°F9.4°C 91% 5.1 mph N8.2 kmh N 7.4 mph11.9 kmh 29.65 in1004.1 mb 0.04 in1.0 mm 0.00 in0.0 mm 0.12 in3.0 mm
06:25 AM 51.5°F10.8°C 49.0°F9.4°C 91% 4.7 mph N7.6 kmh N 7.4 mph11.9 kmh 29.65 in1004.1 mb 0.04 in1.0 mm 0.00 in0.0 mm 0.12 in3.0 mm
06:30 AM 51.3°F10.7°C 48.8°F9.3°C 91% 5.0 mph NNE8.0 kmh NNE 9.8 mph15.8 kmh 29.65 in1004.1 mb 0.04 in1.0 mm 0.00 in0.0 mm 0.12 in3.0 mm
06:35 AM 51.2°F10.7°C 48.6°F9.2°C 91% 6.7 mph NE10.8 kmh NE 10.1 mph16.3 kmh 29.65 in1004.1 mb 0.04 in1.0 mm 0.00 in0.0 mm 0.12 in3.0 mm
06:40 AM 51.0°F10.6°C 48.5°F9.2°C 91% 7.0 mph NNE11.3 kmh NNE 11.6 mph18.7 kmh 29.65 in1004.1 mb 0.04 in1.0 mm 0.00 in0.0 mm 0.12 in3.0 mm
06:45 AM 51.0°F10.6°C 48.5°F9.2°C 91% 7.7 mph NNE12.4 kmh NNE 11.6 mph18.7 kmh 29.65 in1004.1 mb 0.00 in0.0 mm 0.00 in0.0 mm 0.12 in3.0 mm
06:50 AM 51.0°F10.6°C 48.5°F9.2°C 91% 8.0 mph NNE12.9 kmh NNE 10.4 mph16.7 kmh 29.65 in1004.1 mb 0.04 in1.0 mm 0.48 in12.2 mm 0.16 in4.1 mm
06:55 AM 50.8°F10.4°C 48.3°F9.1°C 91% 7.4 mph NNE11.9 kmh NNE 11.9 mph19.2 kmh 29.65 in1004.1 mb 0.04 in1.0 mm 0.00 in0.0 mm 0.16 in4.1 mm
07:00 AM 50.8°F10.4°C 48.3°F9.1°C 91% 7.0 mph NNE11.3 kmh NNE 11.9 mph19.2 kmh 29.65 in1004.1 mb 0.04 in1.0 mm 0.00 in0.0 mm 0.16 in4.1 mm
07:05 AM 50.8°F10.4°C 48.3°F9.1°C 91% 5.8 mph NNE9.3 kmh NNE 8.0 mph12.9 kmh 29.68 in1005.1 mb 0.04 in1.0 mm 0.00 in0.0 mm 0.16 in4.1 mm
07:10 AM 50.6°F10.3°C 48.1°F8.9°C 91% 5.6 mph NNE9.0 kmh NNE 8.3 mph13.4 kmh 29.68 in1005.1 mb 0.04 in1.0 mm 0.00 in0.0 mm 0.16 in4.1 mm
07:15 AM 50.6°F10.3°C 48.1°F8.9°C 91% 5.2 mph N8.4 kmh N 8.3 mph13.4 kmh 29.68 in1005.1 mb 0.04 in1.0 mm 0.00 in0.0 mm 0.16 in4.1 mm
07:20 AM 50.6°F10.3°C 48.1°F8.9°C 91% 4.4 mph N7.1 kmh N 5.4 mph8.7 kmh 29.68 in1005.1 mb 0.04 in1.0 mm 0.00 in0.0 mm 0.16 in4.1 mm
07:25 AM 50.6°F10.3°C 48.1°F8.9°C 91% 5.1 mph N8.2 kmh N 8.0 mph12.9 kmh 29.68 in1005.1 mb 0.04 in1.0 mm 0.00 in0.0 mm 0.16 in4.1 mm
07:30 AM 50.5°F10.3°C 47.9°F8.8°C 91% 6.9 mph N11.1 kmh N 10.7 mph17.2 kmh 29.68 in1005.1 mb 0.04 in1.0 mm 0.00 in0.0 mm 0.16 in4.1 mm
07:35 AM 50.5°F10.3°C 48.2°F9.0°C 92% 7.6 mph N12.2 kmh N 10.7 mph17.2 kmh 29.68 in1005.1 mb 0.04 in1.0 mm 0.00 in0.0 mm 0.16 in4.1 mm
07:40 AM 50.3°F10.2°C 48.0°F8.9°C 92% 6.3 mph NNE10.1 kmh NNE 8.6 mph13.8 kmh 29.68 in1005.1 mb 0.09 in2.3 mm 0.60 in15.2 mm 0.21 in5.3 mm
07:45 AM 50.3°F10.2°C 48.0°F8.9°C 92% 5.9 mph N9.5 kmh N 8.6 mph13.8 kmh 29.68 in1005.1 mb 0.09 in2.3 mm 0.00 in0.0 mm 0.21 in5.3 mm
07:50 AM 50.3°F10.2°C 48.0°F8.9°C 92% 4.9 mph N7.9 kmh N 8.3 mph13.4 kmh 29.70 in1005.8 mb 0.05 in1.3 mm 0.00 in0.0 mm 0.21 in5.3 mm
07:55 AM 50.3°F10.2°C 48.3°F9.1°C 93% 4.6 mph N7.4 kmh N 5.7 mph9.2 kmh 29.70 in1005.8 mb 0.09 in2.3 mm 0.48 in12.2 mm 0.25 in6.4 mm
08:00 AM 50.1°F10.1°C 47.9°F8.8°C 92% 5.6 mph N9.0 kmh N 7.1 mph11.4 kmh 29.70 in1005.8 mb 0.09 in2.3 mm 0.00 in0.0 mm 0.25 in6.4 mm
08:05 AM 50.1°F10.1°C 47.9°F8.8°C 92% 5.9 mph N9.5 kmh N 8.0 mph12.9 kmh 29.70 in1005.8 mb 0.13 in3.3 mm 0.48 in12.2 mm 0.29 in7.4 mm
08:10 AM 50.1°F10.1°C 48.1°F8.9°C 93% 5.5 mph N8.9 kmh N 8.0 mph12.9 kmh 29.70 in1005.8 mb 0.13 in3.3 mm 0.00 in0.0 mm 0.29 in7.4 mm
08:15 AM 50.1°F10.1°C 48.1°F8.9°C 93% 5.4 mph NNE8.7 kmh NNE 8.0 mph12.9 kmh 29.70 in1005.8 mb 0.17 in4.3 mm 0.48 in12.2 mm 0.33 in8.4 mm
08:20 AM 49.9°F9.9°C 48.0°F8.9°C 93% 4.8 mph NNE7.7 kmh NNE 7.1 mph11.4 kmh 29.70 in1005.8 mb 0.17 in4.3 mm 0.00 in0.0 mm 0.33 in8.4 mm
08:25 AM 49.9°F9.9°C 48.0°F8.9°C 93% 5.3 mph NNE8.5 kmh NNE 8.0 mph12.9 kmh 29.70 in1005.8 mb 0.17 in4.3 mm 0.00 in0.0 mm 0.33 in8.4 mm
08:30 AM 49.9°F9.9°C 48.0°F8.9°C 93% 6.5 mph NE10.5 kmh NE 8.3 mph13.4 kmh 29.70 in1005.8 mb 0.17 in4.3 mm 0.00 in0.0 mm 0.33 in8.4 mm
08:35 AM 49.9°F9.9°C 48.0°F8.9°C 93% 7.8 mph NNE12.6 kmh NNE 13.1 mph21.1 kmh 29.70 in1005.8 mb 0.17 in4.3 mm 0.00 in0.0 mm 0.33 in8.4 mm
08:40 AM 49.9°F9.9°C 48.0°F8.9°C 93% 7.9 mph NNE12.7 kmh NNE 13.1 mph21.1 kmh 29.70 in1005.8 mb 0.16 in4.1 mm 0.00 in0.0 mm 0.37 in9.4 mm
08:45 AM 49.9°F9.9°C 48.0°F8.9°C 93% 7.7 mph N12.4 kmh N 12.8 mph20.6 kmh 29.70 in1005.8 mb 0.16 in4.1 mm 0.00 in0.0 mm 0.37 in9.4 mm
08:50 AM 49.9°F9.9°C 48.3°F9.1°C 94% 7.0 mph NNE11.3 kmh NNE 10.4 mph16.7 kmh 29.70 in1005.8 mb 0.16 in4.1 mm 0.00 in0.0 mm 0.37 in9.4 mm
08:55 AM 50.1°F10.1°C 48.4°F9.1°C 94% 6.7 mph N10.8 kmh N 8.6 mph13.8 kmh 29.70 in1005.8 mb 0.12 in3.0 mm 0.00 in0.0 mm 0.37 in9.4 mm
09:00 AM 50.1°F10.1°C 48.4°F9.1°C 94% 6.8 mph N10.9 kmh N 8.6 mph13.8 kmh 29.70 in1005.8 mb 0.12 in3.0 mm 0.00 in0.0 mm 0.37 in9.4 mm
09:05 AM 50.1°F10.1°C 48.4°F9.1°C 94% 9.1 mph N14.6 kmh N 15.8 mph25.4 kmh 29.70 in1005.8 mb 0.08 in2.0 mm 0.00 in0.0 mm 0.37 in9.4 mm
09:10 AM 50.1°F10.1°C 48.4°F9.1°C 94% 9.4 mph N15.1 kmh N 15.8 mph25.4 kmh 29.68 in1005.1 mb 0.08 in2.0 mm 0.00 in0.0 mm 0.37 in9.4 mm
09:15 AM 50.1°F10.1°C 48.4°F9.1°C 94% 8.4 mph NNE13.5 kmh NNE 16.4 mph26.4 kmh 29.68 in1005.1 mb 0.04 in1.0 mm 0.00 in0.0 mm 0.37 in9.4 mm
09:20 AM 50.3°F10.2°C 48.6°F9.2°C 94% 9.8 mph N15.8 kmh N 16.4 mph26.4 kmh 29.68 in1005.1 mb 0.04 in1.0 mm 0.00 in0.0 mm 0.37 in9.4 mm
09:25 AM 50.3°F10.2°C 48.6°F9.2°C 94% 9.6 mph NNW15.4 kmh NNW 16.4 mph26.4 kmh 29.68 in1005.1 mb 0.04 in1.0 mm 0.00 in0.0 mm 0.37 in9.4 mm
09:30 AM 50.3°F10.2°C 48.6°F9.2°C 94% 9.3 mph N15.0 kmh N 14.0 mph22.5 kmh 29.68 in1005.1 mb 0.04 in1.0 mm 0.00 in0.0 mm 0.37 in9.4 mm
09:35 AM 50.3°F10.2°C 48.9°F9.4°C 95% 9.0 mph N14.5 kmh N 13.7 mph22.0 kmh 29.70 in1005.8 mb 0.04 in1.0 mm 0.00 in0.0 mm 0.37 in9.4 mm
09:40 AM 50.3°F10.2°C 48.9°F9.4°C 95% 7.8 mph NNW12.6 kmh NNW 10.4 mph16.7 kmh 29.70 in1005.8 mb 0.00 in0.0 mm 0.00 in0.0 mm 0.37 in9.4 mm
09:45 AM 50.3°F10.2°C 48.9°F9.4°C 95% 6.5 mph N10.5 kmh N 10.7 mph17.2 kmh 29.70 in1005.8 mb 0.00 in0.0 mm 0.00 in0.0 mm 0.37 in9.4 mm
09:50 AM 50.3°F10.2°C 48.9°F9.4°C 95% 7.5 mph NNE12.1 kmh NNE 11.6 mph18.7 kmh 29.70 in1005.8 mb 0.00 in0.0 mm 0.00 in0.0 mm 0.37 in9.4 mm
09:55 AM 50.1°F10.1°C 48.7°F9.3°C 95% 8.8 mph NE14.2 kmh NE 11.6 mph18.7 kmh 29.70 in1005.8 mb 0.00 in0.0 mm 0.00 in0.0 mm 0.37 in9.4 mm
10:00 AM 50.1°F10.1°C 48.7°F9.3°C 95% 8.8 mph NE14.2 kmh NE 11.6 mph18.7 kmh 29.70 in1005.8 mb 0.00 in0.0 mm 0.00 in0.0 mm 0.37 in9.4 mm
10:05 AM 50.1°F10.1°C 48.7°F9.3°C 95% 7.5 mph NNE12.1 kmh NNE 11.6 mph18.7 kmh 29.70 in1005.8 mb 0.00 in0.0 mm 0.00 in0.0 mm 0.37 in9.4 mm
10:10 AM 50.1°F10.1°C 48.7°F9.3°C 95% 7.7 mph NNE12.4 kmh NNE 11.6 mph18.7 kmh 29.70 in1005.8 mb 0.04 in1.0 mm 0.48 in12.2 mm 0.41 in10.4 mm
10:15 AM 50.1°F10.1°C 48.7°F9.3°C 95% 7.7 mph N12.4 kmh N 11.3 mph18.2 kmh 29.70 in1005.8 mb 0.04 in1.0 mm 0.00 in0.0 mm 0.41 in10.4 mm
10:20 AM 50.1°F10.1°C 48.7°F9.3°C 95% 6.3 mph N10.1 kmh N 11.3 mph18.2 kmh 29.70 in1005.8 mb 0.04 in1.0 mm 0.00 in0.0 mm 0.41 in10.4 mm
10:25 AM 50.1°F10.1°C 48.7°F9.3°C 95% 5.8 mph NNE9.3 kmh NNE 8.6 mph13.8 kmh 29.70 in1005.8 mb 0.04 in1.0 mm 0.00 in0.0 mm 0.41 in10.4 mm
10:30 AM 50.1°F10.1°C 48.7°F9.3°C 95% 5.6 mph NNE9.0 kmh NNE 11.3 mph18.2 kmh 29.70 in1005.8 mb 0.04 in1.0 mm 0.00 in0.0 mm 0.41 in10.4 mm
10:35 AM 50.1°F10.1°C 48.7°F9.3°C 95% 6.6 mph NNE10.6 kmh NNE 11.3 mph18.2 kmh 29.70 in1005.8 mb 0.04 in1.0 mm 0.00 in0.0 mm 0.41 in10.4 mm
10:40 AM 50.1°F10.1°C 48.7°F9.3°C 95% 6.9 mph NNE11.1 kmh NNE 11.3 mph18.2 kmh 29.70 in1005.8 mb 0.04 in1.0 mm 0.00 in0.0 mm 0.41 in10.4 mm
10:45 AM 50.3°F10.2°C 48.9°F9.4°C 95% 6.8 mph NNE10.9 kmh NNE 9.8 mph15.8 kmh 29.70 in1005.8 mb 0.04 in1.0 mm 0.00 in0.0 mm 0.41 in10.4 mm
10:50 AM 50.3°F10.2°C 48.9°F9.4°C 95% 7.2 mph NE11.6 kmh NE 10.4 mph16.7 kmh 29.73 in1006.8 mb 0.08 in2.0 mm 0.48 in12.2 mm 0.45 in11.4 mm
10:55 AM 50.3°F10.2°C 48.9°F9.4°C 95% 7.9 mph NE12.7 kmh NE 14.3 mph23.0 kmh 29.73 in1006.8 mb 0.08 in2.0 mm 0.00 in0.0 mm 0.45 in11.4 mm
11:00 AM 50.3°F10.2°C 48.9°F9.4°C 95% 8.1 mph NNE13.0 kmh NNE 14.3 mph23.0 kmh 29.73 in1006.8 mb 0.08 in2.0 mm 0.00 in0.0 mm 0.45 in11.4 mm
11:05 AM 50.3°F10.2°C 48.9°F9.4°C 95% 8.2 mph NE13.2 kmh NE 13.7 mph22.0 kmh 29.73 in1006.8 mb 0.08 in2.0 mm 0.00 in0.0 mm 0.45 in11.4 mm
11:10 AM 50.3°F10.2°C 48.9°F9.4°C 95% 9.7 mph NE15.6 kmh NE 13.7 mph22.0 kmh 29.73 in1006.8 mb 0.04 in1.0 mm 0.00 in0.0 mm 0.45 in11.4 mm
11:15 AM 50.3°F10.2°C 48.9°F9.4°C 95% 8.2 mph NNE13.2 kmh NNE 14.0 mph22.5 kmh 29.73 in1006.8 mb 0.04 in1.0 mm 0.00 in0.0 mm 0.45 in11.4 mm
11:20 AM 50.3°F10.2°C 48.9°F9.4°C 95% 7.2 mph NNE11.6 kmh NNE 14.3 mph23.0 kmh 29.70 in1005.8 mb 0.04 in1.0 mm 0.00 in0.0 mm 0.45 in11.4 mm
11:25 AM 50.3°F10.2°C 48.9°F9.4°C 95% 8.1 mph N13.0 kmh N 14.3 mph23.0 kmh 29.70 in1005.8 mb 0.04 in1.0 mm 0.00 in0.0 mm 0.45 in11.4 mm
11:30 AM 50.3°F10.2°C 48.9°F9.4°C 95% 6.9 mph NNE11.1 kmh NNE 12.5 mph20.1 kmh 29.70 in1005.8 mb 0.04 in1.0 mm 0.00 in0.0 mm 0.45 in11.4 mm
11:35 AM 50.1°F10.1°C 48.7°F9.3°C 95% 7.9 mph NNE12.7 kmh NNE 13.4 mph21.6 kmh 29.70 in1005.8 mb 0.04 in1.0 mm 0.00 in0.0 mm 0.45 in11.4 mm
11:40 AM 50.1°F10.1°C 48.7°F9.3°C 95% 9.2 mph NE14.8 kmh NE 13.4 mph21.6 kmh 29.70 in1005.8 mb 0.04 in1.0 mm 0.00 in0.0 mm 0.45 in11.4 mm
11:45 AM 49.9°F9.9°C 48.5°F9.2°C 95% 9.3 mph NE15.0 kmh NE 18.4 mph29.6 kmh 29.70 in1005.8 mb 0.05 in1.3 mm 0.12 in3.0 mm 0.50 in12.7 mm
11:50 AM 49.9°F9.9°C 48.5°F9.2°C 95% 7.6 mph NE12.2 kmh NE 18.4 mph29.6 kmh 29.70 in1005.8 mb 0.05 in1.3 mm 0.00 in0.0 mm 0.50 in12.7 mm
11:55 AM 49.9°F9.9°C 48.5°F9.2°C 95% 6.3 mph NE10.1 kmh NE 8.6 mph13.8 kmh 29.70 in1005.8 mb 0.05 in1.3 mm 0.00 in0.0 mm 0.50 in12.7 mm
12:00 PM 49.9°F9.9°C 48.5°F9.2°C 95% 7.2 mph NE11.6 kmh NE 11.3 mph18.2 kmh 29.70 in1005.8 mb 0.05 in1.3 mm 0.00 in0.0 mm 0.50 in12.7 mm
12:05 PM 49.9°F9.9°C 48.5°F9.2°C 95% 6.9 mph NE11.1 kmh NE 11.3 mph18.2 kmh 29.70 in1005.8 mb 0.05 in1.3 mm 0.00 in0.0 mm 0.50 in12.7 mm
12:10 PM 50.1°F10.1°C 48.7°F9.3°C 95% 5.7 mph NE9.2 kmh NE 11.6 mph18.7 kmh 29.70 in1005.8 mb 0.05 in1.3 mm 0.00 in0.0 mm 0.50 in12.7 mm
12:15 PM 50.1°F10.1°C 48.7°F9.3°C 95% 5.9 mph NE9.5 kmh NE 11.6 mph18.7 kmh 29.70 in1005.8 mb 0.05 in1.3 mm 0.00 in0.0 mm 0.50 in12.7 mm
12:20 PM 50.3°F10.2°C 48.9°F9.4°C 95% 5.9 mph NE9.5 kmh NE 8.0 mph12.9 kmh 29.70 in1005.8 mb 0.05 in1.3 mm 0.00 in0.0 mm 0.50 in12.7 mm
12:25 PM 50.5°F10.3°C 49.1°F9.5°C 95% 6.7 mph NE10.8 kmh NE 12.2 mph19.6 kmh 29.70 in1005.8 mb 0.05 in1.3 mm 0.00 in0.0 mm 0.50 in12.7 mm
12:30 PM 50.5°F10.3°C 49.1°F9.5°C 95% 7.6 mph NE12.2 kmh NE 12.2 mph19.6 kmh 29.70 in1005.8 mb 0.05 in1.3 mm 0.00 in0.0 mm 0.50 in12.7 mm
12:35 PM 50.5°F10.3°C 49.1°F9.5°C 95% 7.7 mph NE12.4 kmh NE 14.0 mph22.5 kmh 29.70 in1005.8 mb 0.05 in1.3 mm 0.00 in0.0 mm 0.50 in12.7 mm
12:40 PM 50.5°F10.3°C 49.1°F9.5°C 95% 7.2 mph NE11.6 kmh NE 14.0 mph22.5 kmh 29.70 in1005.8 mb 0.05 in1.3 mm 0.00 in0.0 mm 0.50 in12.7 mm
12:45 PM 50.6°F10.3°C 49.3°F9.6°C 95% 6.9 mph NE11.1 kmh NE 10.1 mph16.3 kmh 29.70 in1005.8 mb 0.00 in0.0 mm 0.00 in0.0 mm 0.50 in12.7 mm
12:50 PM 50.6°F10.3°C 49.3°F9.6°C 95% 6.6 mph NE10.6 kmh NE 10.4 mph16.7 kmh 29.70 in1005.8 mb 0.00 in0.0 mm 0.00 in0.0 mm 0.50 in12.7 mm
12:55 PM 51.0°F10.6°C 49.6°F9.8°C 95% 7.1 mph ENE11.4 kmh ENE 10.7 mph17.2 kmh 29.70 in1005.8 mb 0.00 in0.0 mm 0.00 in0.0 mm 0.50 in12.7 mm
01:00 PM 51.2°F10.7°C 49.8°F9.9°C 95% 7.3 mph NE11.7 kmh NE 10.7 mph17.2 kmh 29.70 in1005.8 mb 0.00 in0.0 mm 0.00 in0.0 mm 0.50 in12.7 mm
01:05 PM 51.3°F10.7°C 50.0°F10.0°C 95% 7.3 mph NE11.7 kmh NE 13.1 mph21.1 kmh 29.70 in1005.8 mb 0.00 in0.0 mm 0.00 in0.0 mm 0.50 in12.7 mm
01:10 PM 51.2°F10.7°C 49.8°F9.9°C 95% 9.7 mph NE15.6 kmh NE 17.0 mph27.4 kmh 29.70 in1005.8 mb 0.00 in0.0 mm 0.00 in0.0 mm 0.50 in12.7 mm
01:15 PM 51.3°F10.7°C 50.0°F10.0°C 95% 9.5 mph NE15.3 kmh NE 17.0 mph27.4 kmh 29.70 in1005.8 mb 0.00 in0.0 mm 0.00 in0.0 mm 0.50 in12.7 mm
01:20 PM 51.5°F10.8°C 50.1°F10.1°C 95% 8.0 mph NE12.9 kmh NE 10.7 mph17.2 kmh 29.70 in1005.8 mb 0.00 in0.0 mm 0.00 in0.0 mm 0.50 in12.7 mm
01:25 PM 51.5°F10.8°C 49.9°F9.9°C 94% 7.3 mph ENE11.7 kmh ENE 10.7 mph17.2 kmh 29.70 in1005.8 mb 0.00 in0.0 mm 0.00 in0.0 mm 0.50 in12.7 mm
01:30 PM 52.1°F11.2°C 50.7°F10.4°C 95% 6.0 mph NE9.7 kmh NE 9.2 mph14.8 kmh 29.70 in1005.8 mb 0.00 in0.0 mm 0.00 in0.0 mm 0.50 in12.7 mm
01:35 PM 52.1°F11.2°C 50.7°F10.4°C 95% 7.7 mph NE12.4 kmh NE 13.4 mph21.6 kmh 29.70 in1005.8 mb 0.00 in0.0 mm 0.00 in0.0 mm 0.50 in12.7 mm
01:40 PM 52.4°F11.3°C 50.8°F10.4°C 94% 8.6 mph NE13.8 kmh NE 13.4 mph21.6 kmh 29.70 in1005.8 mb 0.00 in0.0 mm 0.00 in0.0 mm 0.50 in12.7 mm
01:45 PM 52.8°F11.6°C 51.1°F10.6°C 94% 7.9 mph ENE12.7 kmh ENE 13.1 mph21.1 kmh 29.70 in1005.8 mb 0.00 in0.0 mm 0.00 in0.0 mm 0.50 in12.7 mm
01:50 PM 52.8°F11.6°C 51.1°F10.6°C 94% 9.7 mph NE15.6 kmh NE 17.3 mph27.8 kmh 29.70 in1005.8 mb 0.00 in0.0 mm 0.00 in0.0 mm 0.50 in12.7 mm
01:55 PM 53.0°F11.7°C 51.3°F10.7°C 94% 9.5 mph NE15.3 kmh NE 17.3 mph27.8 kmh 29.70 in1005.8 mb 0.00 in0.0 mm 0.00 in0.0 mm 0.50 in12.7 mm
02:00 PM 53.3°F11.8°C 51.6°F10.9°C 94% 8.7 mph NE14.0 kmh NE 12.5 mph20.1 kmh 29.70 in1005.8 mb 0.00 in0.0 mm 0.00 in0.0 mm 0.50 in12.7 mm
02:05 PM 53.3°F11.8°C 51.4°F10.8°C 93% 9.1 mph NE14.6 kmh NE 14.6 mph23.5 kmh 29.70 in1005.8 mb 0.00 in0.0 mm 0.00 in0.0 mm 0.50 in12.7 mm
02:10 PM 53.3°F11.8°C 51.4°F10.8°C 93% 8.1 mph ENE13.0 kmh ENE 14.6 mph23.5 kmh 29.70 in1005.8 mb 0.00 in0.0 mm 0.00 in0.0 mm 0.50 in12.7 mm
02:15 PM 53.2°F11.8°C 51.2°F10.7°C 93% 7.7 mph NE12.4 kmh NE 14.0 mph22.5 kmh 29.70 in1005.8 mb 0.00 in0.0 mm 0.00 in0.0 mm 0.50 in12.7 mm
02:20 PM 53.0°F11.7°C 50.7°F10.4°C 92% 9.4 mph NE15.1 kmh NE 13.7 mph22.0 kmh 29.70 in1005.8 mb 0.00 in0.0 mm 0.00 in0.0 mm 0.50 in12.7 mm
02:25 PM 52.8°F11.6°C 50.5°F10.3°C 92% 8.7 mph NE14.0 kmh NE 13.7 mph22.0 kmh 29.70 in1005.8 mb 0.00 in0.0 mm 0.00 in0.0 mm 0.50 in12.7 mm
02:30 PM 52.6°F11.4°C 50.4°F10.2°C 92% 8.3 mph ENE13.4 kmh ENE 14.0 mph22.5 kmh 29.70 in1005.8 mb 0.00 in0.0 mm 0.00 in0.0 mm 0.50 in12.7 mm
02:35 PM 52.6°F11.4°C 50.4°F10.2°C 92% 8.7 mph ENE14.0 kmh ENE 14.0 mph22.5 kmh 29.70 in1005.8 mb 0.00 in0.0 mm 0.00 in0.0 mm 0.50 in12.7 mm
02:40 PM 52.4°F11.3°C 49.9°F9.9°C 91% 9.4 mph ENE15.1 kmh ENE 17.6 mph28.3 kmh 29.70 in1005.8 mb 0.00 in0.0 mm 0.00 in0.0 mm 0.50 in12.7 mm
02:45 PM 52.3°F11.3°C 50.0°F10.0°C 92% 10.0 mph ENE16.1 kmh ENE 17.6 mph28.3 kmh 29.70 in1005.8 mb 0.00 in0.0 mm 0.00 in0.0 mm 0.50 in12.7 mm
02:50 PM 52.1°F11.2°C 49.8°F9.9°C 92% 9.5 mph E15.3 kmh E 16.1 mph25.9 kmh 29.73 in1006.8 mb 0.00 in0.0 mm 0.00 in0.0 mm 0.50 in12.7 mm
02:55 PM 51.9°F11.1°C 49.6°F9.8°C 92% 8.3 mph E13.4 kmh E 13.7 mph22.0 kmh 29.73 in1006.8 mb 0.00 in0.0 mm 0.00 in0.0 mm 0.50 in12.7 mm
03:00 PM 51.9°F11.1°C 49.6°F9.8°C 92% 7.9 mph E12.7 kmh E 14.0 mph22.5 kmh 29.73 in1006.8 mb 0.00 in0.0 mm 0.00 in0.0 mm 0.50 in12.7 mm
03:05 PM 51.9°F11.1°C 49.6°F9.8°C 92% 7.2 mph ENE11.6 kmh ENE 14.0 mph22.5 kmh 29.73 in1006.8 mb 0.00 in0.0 mm 0.00 in0.0 mm 0.50 in12.7 mm
03:10 PM 51.9°F11.1°C 49.6°F9.8°C 92% 6.9 mph ENE11.1 kmh ENE 13.1 mph21.1 kmh 29.73 in1006.8 mb 0.00 in0.0 mm 0.00 in0.0 mm 0.50 in12.7 mm
03:15 PM 51.9°F11.1°C 49.6°F9.8°C 92% 7.0 mph E11.3 kmh E 13.1 mph21.1 kmh 29.73 in1006.8 mb 0.00 in0.0 mm 0.00 in0.0 mm 0.50 in12.7 mm
03:20 PM 51.7°F10.9°C 49.5°F9.7°C 92% 6.8 mph ENE10.9 kmh ENE 11.3 mph18.2 kmh 29.73 in1006.8 mb 0.00 in0.0 mm 0.00 in0.0 mm 0.50 in12.7 mm
03:25 PM 51.7°F10.9°C 49.2°F9.6°C 91% 7.3 mph ENE11.7 kmh ENE 10.1 mph16.3 kmh 29.73 in1006.8 mb 0.00 in0.0 mm 0.00 in0.0 mm 0.50 in12.7 mm
03:30 PM 51.7°F10.9°C 49.2°F9.6°C 91% 7.5 mph E12.1 kmh E 10.1 mph16.3 kmh 29.73 in1006.8 mb 0.00 in0.0 mm 0.00 in0.0 mm 0.50 in12.7 mm
03:35 PM 51.7°F10.9°C 49.2°F9.6°C 91% 7.3 mph NE11.7 kmh NE 10.1 mph16.3 kmh 29.73 in1006.8 mb 0.00 in0.0 mm 0.00 in0.0 mm 0.50 in12.7 mm
03:40 PM 51.7°F10.9°C 49.2°F9.6°C 91% 6.7 mph ENE10.8 kmh ENE 10.1 mph16.3 kmh 29.73 in1006.8 mb 0.00 in0.0 mm 0.00 in0.0 mm 0.50 in12.7 mm
03:45 PM 51.7°F10.9°C 49.2°F9.6°C 91% 4.6 mph E7.4 kmh E 7.4 mph11.9 kmh 29.73 in1006.8 mb 0.00 in0.0 mm 0.00 in0.0 mm 0.50 in12.7 mm
03:50 PM 51.7°F10.9°C 49.2°F9.6°C 91% 4.5 mph ENE7.2 kmh ENE 7.7 mph12.4 kmh 29.73 in1006.8 mb 0.00 in0.0 mm 0.00 in0.0 mm 0.50 in12.7 mm
03:55 PM 51.7°F10.9°C 49.2°F9.6°C 91% 5.5 mph NE8.9 kmh NE 8.3 mph13.4 kmh 29.73 in1006.8 mb 0.00 in0.0 mm 0.00 in0.0 mm 0.50 in12.7 mm
04:00 PM 51.7°F10.9°C 49.2°F9.6°C 91% 6.0 mph NE9.7 kmh NE 10.7 mph17.2 kmh 29.73 in1006.8 mb 0.00 in0.0 mm 0.00 in0.0 mm 0.50 in12.7 mm
04:05 PM 51.7°F10.9°C 48.9°F9.4°C 90% 6.5 mph NE10.5 kmh NE 10.7 mph17.2 kmh 29.73 in1006.8 mb 0.00 in0.0 mm 0.00 in0.0 mm 0.50 in12.7 mm
04:10 PM 51.5°F10.8°C 48.7°F9.3°C 90% 7.0 mph ENE11.3 kmh ENE 9.2 mph14.8 kmh 29.73 in1006.8 mb 0.00 in0.0 mm 0.00 in0.0 mm 0.50 in12.7 mm
04:15 PM 51.7°F10.9°C 48.9°F9.4°C 90% 7.1 mph NE11.4 kmh NE 9.2 mph14.8 kmh 29.73 in1006.8 mb 0.00 in0.0 mm 0.00 in0.0 mm 0.50 in12.7 mm
04:20 PM 51.5°F10.8°C 48.4°F9.1°C 89% 6.6 mph NE10.6 kmh NE 10.1 mph16.3 kmh 29.73 in1006.8 mb 0.00 in0.0 mm 0.00 in0.0 mm 0.50 in12.7 mm
04:25 PM 51.7°F10.9°C 48.6°F9.2°C 89% 6.1 mph NE9.8 kmh NE 10.1 mph16.3 kmh 29.73 in1006.8 mb 0.00 in0.0 mm 0.00 in0.0 mm 0.50 in12.7 mm
04:30 PM 51.7°F10.9°C 48.3°F9.1°C 88% 5.5 mph NE8.9 kmh NE 10.1 mph16.3 kmh 29.73 in1006.8 mb 0.00 in0.0 mm 0.00 in0.0 mm 0.50 in12.7 mm
04:35 PM 51.5°F10.8°C 48.1°F8.9°C 88% 5.5 mph NE8.9 kmh NE 10.1 mph16.3 kmh 29.73 in1006.8 mb 0.00 in0.0 mm 0.00 in0.0 mm 0.50 in12.7 mm
04:40 PM 51.5°F10.8°C 47.8°F8.8°C 87% 5.7 mph ENE9.2 kmh ENE 10.1 mph16.3 kmh 29.73 in1006.8 mb 0.00 in0.0 mm 0.00 in0.0 mm 0.50 in12.7 mm
04:45 PM 51.3°F10.7°C 47.6°F8.7°C 87% 5.3 mph NE8.5 kmh NE 7.7 mph12.4 kmh 29.73 in1006.8 mb 0.00 in0.0 mm 0.00 in0.0 mm 0.50 in12.7 mm
04:50 PM 51.3°F10.7°C 47.6°F8.7°C 87% 5.0 mph NNE8.0 kmh NNE 7.4 mph11.9 kmh 29.73 in1006.8 mb 0.00 in0.0 mm 0.00 in0.0 mm 0.50 in12.7 mm
04:55 PM 51.2°F10.7°C 47.1°F8.4°C 86% 7.2 mph NNE11.6 kmh NNE 14.9 mph24.0 kmh 29.73 in1006.8 mb 0.00 in0.0 mm 0.00 in0.0 mm 0.50 in12.7 mm
05:00 PM 51.2°F10.7°C 47.1°F8.4°C 86% 8.9 mph NE14.3 kmh NE 14.9 mph24.0 kmh 29.73 in1006.8 mb 0.00 in0.0 mm 0.00 in0.0 mm 0.50 in12.7 mm
05:05 PM 51.0°F10.6°C 46.6°F8.1°C 85% 7.2 mph ENE11.6 kmh ENE 14.9 mph24.0 kmh 29.73 in1006.8 mb 0.00 in0.0 mm 0.00 in0.0 mm 0.50 in12.7 mm
05:10 PM 51.0°F10.6°C 46.6°F8.1°C 85% 7.7 mph NE12.4 kmh NE 13.7 mph22.0 kmh 29.73 in1006.8 mb 0.00 in0.0 mm 0.00 in0.0 mm 0.50 in12.7 mm
05:15 PM 50.8°F10.4°C 46.5°F8.1°C 85% 6.8 mph NE10.9 kmh NE 10.4 mph16.7 kmh 29.73 in1006.8 mb 0.00 in0.0 mm 0.00 in0.0 mm 0.50 in12.7 mm
05:20 PM 50.8°F10.4°C 46.5°F8.1°C 85% 5.6 mph NE9.0 kmh NE 8.9 mph14.3 kmh 29.76 in1007.8 mb 0.00 in0.0 mm 0.00 in0.0 mm 0.50 in12.7 mm
05:25 PM 50.6°F10.3°C 46.3°F7.9°C 85% 5.6 mph NE9.0 kmh NE 8.0 mph12.9 kmh 29.76 in1007.8 mb 0.00 in0.0 mm 0.00 in0.0 mm 0.50 in12.7 mm
05:30 PM 50.5°F10.3°C 46.1°F7.8°C 85% 6.7 mph NE10.8 kmh NE 9.5 mph15.3 kmh 29.76 in1007.8 mb 0.00 in0.0 mm 0.00 in0.0 mm 0.50 in12.7 mm
05:35 PM 50.5°F10.3°C 46.1°F7.8°C 85% 6.9 mph NE11.1 kmh NE 9.5 mph15.3 kmh 29.76 in1007.8 mb 0.00 in0.0 mm 0.00 in0.0 mm 0.50 in12.7 mm
05:40 PM 50.5°F10.3°C 45.8°F7.7°C 84% 5.7 mph NE9.2 kmh NE 8.9 mph14.3 kmh 29.76 in1007.8 mb 0.00 in0.0 mm 0.00 in0.0 mm 0.50 in12.7 mm
05:45 PM 50.3°F10.2°C 45.6°F7.6°C 84% 6.0 mph NE9.7 kmh NE 11.3 mph18.2 kmh 29.76 in1007.8 mb 0.00 in0.0 mm 0.00 in0.0 mm 0.50 in12.7 mm
05:50 PM 50.3°F10.2°C 45.6°F7.6°C 84% 6.2 mph NE10.0 kmh NE 11.3 mph18.2 kmh 29.76 in1007.8 mb 0.00 in0.0 mm 0.00 in0.0 mm 0.50 in12.7 mm
05:55 PM 50.3°F10.2°C 45.6°F7.6°C 84% 5.6 mph NE9.0 kmh NE 10.1 mph16.3 kmh 29.76 in1007.8 mb 0.00 in0.0 mm 0.00 in0.0 mm 0.50 in12.7 mm
06:00 PM 50.1°F10.1°C 45.4°F7.4°C 84% 5.9 mph NE9.5 kmh NE 10.1 mph16.3 kmh 29.76 in1007.8 mb 0.00 in0.0 mm 0.00 in0.0 mm 0.50 in12.7 mm
06:05 PM 50.1°F10.1°C 45.1°F7.3°C 83% 7.2 mph NE11.6 kmh NE 10.7 mph17.2 kmh 29.76 in1007.8 mb 0.00 in0.0 mm 0.00 in0.0 mm 0.50 in12.7 mm
06:10 PM 50.1°F10.1°C 45.1°F7.3°C 83% 7.5 mph NE12.1 kmh NE 10.7 mph17.2 kmh 29.76 in1007.8 mb 0.00 in0.0 mm 0.00 in0.0 mm 0.50 in12.7 mm
06:15 PM 49.9°F9.9°C 45.0°F7.2°C 83% 7.1 mph NE11.4 kmh NE 8.0 mph12.9 kmh 29.76 in1007.8 mb 0.00 in0.0 mm 0.00 in0.0 mm 0.50 in12.7 mm
06:20 PM 49.9°F9.9°C 45.0°F7.2°C 83% 8.4 mph NE13.5 kmh NE 10.7 mph17.2 kmh 29.76 in1007.8 mb 0.00 in0.0 mm 0.00 in0.0 mm 0.50 in12.7 mm
06:25 PM 49.9°F9.9°C 45.0°F7.2°C 83% 9.0 mph NE14.5 kmh NE 11.6 mph18.7 kmh 29.76 in1007.8 mb 0.00 in0.0 mm 0.00 in0.0 mm 0.50 in12.7 mm
06:30 PM 49.9°F9.9°C 45.0°F7.2°C 83% 6.9 mph NE11.1 kmh NE 11.6 mph18.7 kmh 29.76 in1007.8 mb 0.00 in0.0 mm 0.00 in0.0 mm 0.50 in12.7 mm
06:35 PM 49.7°F9.8°C 44.8°F7.1°C 83% 5.4 mph NE8.7 kmh NE 8.9 mph14.3 kmh 29.76 in1007.8 mb 0.00 in0.0 mm 0.00 in0.0 mm 0.50 in12.7 mm
06:40 PM 49.7°F9.8°C 44.8°F7.1°C 83% 7.2 mph NNE11.6 kmh NNE 8.9 mph14.3 kmh 29.76 in1007.8 mb 0.00 in0.0 mm 0.00 in0.0 mm 0.50 in12.7 mm
06:45 PM 49.7°F9.8°C 44.5°F6.9°C 82% 7.8 mph NNE12.6 kmh NNE 10.1 mph16.3 kmh 29.76 in1007.8 mb 0.00 in0.0 mm 0.00 in0.0 mm 0.50 in12.7 mm
06:50 PM 49.5°F9.7°C 44.3°F6.8°C 82% 8.5 mph NE13.7 kmh NE 12.8 mph20.6 kmh 29.76 in1007.8 mb 0.00 in0.0 mm 0.00 in0.0 mm 0.50 in12.7 mm
06:55 PM 49.5°F9.7°C 44.3°F6.8°C 82% 8.7 mph NE14.0 kmh NE 12.8 mph20.6 kmh 29.76 in1007.8 mb 0.00 in0.0 mm 0.00 in0.0 mm 0.50 in12.7 mm
07:00 PM 49.5°F9.7°C 44.3°F6.8°C 82% 7.3 mph ENE11.7 kmh ENE 11.3 mph18.2 kmh 29.76 in1007.8 mb 0.00 in0.0 mm 0.00 in0.0 mm 0.50 in12.7 mm
07:05 PM 49.5°F9.7°C 44.3°F6.8°C 82% 7.1 mph ENE11.4 kmh ENE 11.3 mph18.2 kmh 29.76 in1007.8 mb 0.00 in0.0 mm 0.00 in0.0 mm 0.50 in12.7 mm
07:10 PM 49.4°F9.7°C 44.1°F6.7°C 82% 7.0 mph ENE11.3 kmh ENE 10.1 mph16.3 kmh 29.76 in1007.8 mb 0.00 in0.0 mm 0.00 in0.0 mm 0.50 in12.7 mm
07:15 PM 49.4°F9.7°C 44.1°F6.7°C 82% 7.5 mph ENE12.1 kmh ENE 10.4 mph16.7 kmh 29.76 in1007.8 mb 0.00 in0.0 mm 0.00 in0.0 mm 0.50 in12.7 mm
07:20 PM 49.4°F9.7°C 44.1°F6.7°C 82% 9.2 mph ENE14.8 kmh ENE 13.1 mph21.1 kmh 29.76 in1007.8 mb 0.00 in0.0 mm 0.00 in0.0 mm 0.50 in12.7 mm
07:25 PM 49.2°F9.6°C 43.9°F6.6°C 82% 8.9 mph NE14.3 kmh NE 13.1 mph21.1 kmh 29.76 in1007.8 mb 0.00 in0.0 mm 0.00 in0.0 mm 0.50 in12.7 mm
07:30 PM 49.2°F9.6°C 43.9°F6.6°C 82% 10.1 mph ENE16.3 kmh ENE 15.8 mph25.4 kmh 29.76 in1007.8 mb 0.00 in0.0 mm 0.00 in0.0 mm 0.50 in12.7 mm
07:35 PM 49.2°F9.6°C 43.9°F6.6°C 82% 11.6 mph ENE18.7 kmh ENE 15.8 mph25.4 kmh 29.76 in1007.8 mb 0.00 in0.0 mm 0.00 in0.0 mm 0.50 in12.7 mm
07:40 PM 49.0°F9.4°C 43.8°F6.6°C 82% 10.9 mph ENE17.5 kmh ENE 15.8 mph25.4 kmh 29.76 in1007.8 mb 0.00 in0.0 mm 0.00 in0.0 mm 0.50 in12.7 mm
07:45 PM 49.0°F9.4°C 43.8°F6.6°C 82% 8.8 mph ENE14.2 kmh ENE 11.3 mph18.2 kmh 29.76 in1007.8 mb 0.00 in0.0 mm 0.00 in0.0 mm 0.50 in12.7 mm
07:50 PM 49.0°F9.4°C 43.8°F6.6°C 82% 8.7 mph NE14.0 kmh NE 11.3 mph18.2 kmh 29.76 in1007.8 mb 0.00 in0.0 mm 0.00 in0.0 mm 0.50 in12.7 mm
07:55 PM 49.0°F9.4°C 43.8°F6.6°C 82% 9.1 mph NE14.6 kmh NE 16.4 mph26.4 kmh 29.76 in1007.8 mb 0.00 in0.0 mm 0.00 in0.0 mm 0.50 in12.7 mm
08:00 PM 48.8°F9.3°C 43.6°F6.4°C 82% 9.3 mph NE15.0 kmh NE 16.4 mph26.4 kmh 29.76 in1007.8 mb 0.00 in0.0 mm 0.00 in0.0 mm 0.50 in12.7 mm
08:05 PM 48.8°F9.3°C 43.6°F6.4°C 82% 10.7 mph ENE17.2 kmh ENE 16.4 mph26.4 kmh 29.76 in1007.8 mb 0.00 in0.0 mm 0.00 in0.0 mm 0.50 in12.7 mm
08:10 PM 48.8°F9.3°C 43.6°F6.4°C 82% 12.6 mph NE20.3 kmh NE 17.6 mph28.3 kmh 29.76 in1007.8 mb 0.00 in0.0 mm 0.00 in0.0 mm 0.50 in12.7 mm
08:15 PM 48.8°F9.3°C 43.6°F6.4°C 82% 8.8 mph ENE14.2 kmh ENE 17.6 mph28.3 kmh 29.76 in1007.8 mb 0.00 in0.0 mm 0.00 in0.0 mm 0.50 in12.7 mm
08:20 PM 48.7°F9.3°C 43.4°F6.3°C 82% 6.6 mph E10.6 kmh E 9.8 mph15.8 kmh 29.76 in1007.8 mb 0.00 in0.0 mm 0.00 in0.0 mm 0.50 in12.7 mm
08:25 PM 48.7°F9.3°C 43.4°F6.3°C 82% 7.6 mph ENE12.2 kmh ENE 10.1 mph16.3 kmh 29.76 in1007.8 mb 0.00 in0.0 mm 0.00 in0.0 mm 0.50 in12.7 mm
08:30 PM 48.7°F9.3°C 43.7°F6.5°C 83% 8.3 mph NE13.4 kmh NE 10.1 mph16.3 kmh 29.76 in1007.8 mb 0.00 in0.0 mm 0.00 in0.0 mm 0.50 in12.7 mm
08:35 PM 48.7°F9.3°C 43.7°F6.5°C 83% 8.2 mph NE13.2 kmh NE 10.4 mph16.7 kmh 29.76 in1007.8 mb 0.00 in0.0 mm 0.00 in0.0 mm 0.50 in12.7 mm
08:40 PM 48.7°F9.3°C 43.7°F6.5°C 83% 7.6 mph NE12.2 kmh NE 10.4 mph16.7 kmh 29.76 in1007.8 mb 0.00 in0.0 mm 0.00 in0.0 mm 0.50 in12.7 mm
08:45 PM 48.7°F9.3°C 43.7°F6.5°C 83% 6.1 mph ENE9.8 kmh ENE 8.0 mph12.9 kmh 29.76 in1007.8 mb 0.00 in0.0 mm 0.00 in0.0 mm 0.50 in12.7 mm
08:50 PM 48.7°F9.3°C 43.7°F6.5°C 83% 8.0 mph ENE12.9 kmh ENE 13.1 mph21.1 kmh 29.76 in1007.8 mb 0.00 in0.0 mm 0.00 in0.0 mm 0.50 in12.7 mm
08:55 PM 48.7°F9.3°C 43.7°F6.5°C 83% 8.8 mph ENE14.2 kmh ENE 13.1 mph21.1 kmh 29.76 in1007.8 mb 0.00 in0.0 mm 0.00 in0.0 mm 0.50 in12.7 mm
09:00 PM 48.7°F9.3°C 43.7°F6.5°C 83% 7.3 mph ENE11.7 kmh ENE 10.7 mph17.2 kmh 29.76 in1007.8 mb 0.00 in0.0 mm 0.00 in0.0 mm 0.50 in12.7 mm
09:05 PM 48.7°F9.3°C 43.7°F6.5°C 83% 8.0 mph ENE12.9 kmh ENE 11.6 mph18.7 kmh 29.76 in1007.8 mb 0.00 in0.0 mm 0.00 in0.0 mm 0.50 in12.7 mm
09:10 PM 48.7°F9.3°C 43.7°F6.5°C 83% 9.0 mph ENE14.5 kmh ENE 13.1 mph21.1 kmh 29.76 in1007.8 mb 0.00 in0.0 mm 0.00 in0.0 mm 0.50 in12.7 mm
09:15 PM 48.7°F9.3°C 43.7°F6.5°C 83% 7.7 mph ENE12.4 kmh ENE 13.1 mph21.1 kmh 29.76 in1007.8 mb 0.00 in0.0 mm 0.00 in0.0 mm 0.50 in12.7 mm
09:20 PM 48.7°F9.3°C 43.7°F6.5°C 83% 7.5 mph NE12.1 kmh NE 15.8 mph25.4 kmh 29.76 in1007.8 mb 0.00 in0.0 mm 0.00 in0.0 mm 0.50 in12.7 mm
09:25 PM 48.7°F9.3°C 43.7°F6.5°C 83% 9.5 mph ENE15.3 kmh ENE 15.8 mph25.4 kmh 29.76 in1007.8 mb 0.00 in0.0 mm 0.00 in0.0 mm 0.50 in12.7 mm
09:30 PM 48.7°F9.3°C 43.7°F6.5°C 83% 9.3 mph ENE15.0 kmh ENE 14.3 mph23.0 kmh 29.76 in1007.8 mb 0.00 in0.0 mm 0.00 in0.0 mm 0.50 in12.7 mm
09:35 PM 48.7°F9.3°C 43.7°F6.5°C 83% 8.5 mph ENE13.7 kmh ENE 13.4 mph21.6 kmh 29.76 in1007.8 mb 0.00 in0.0 mm 0.00 in0.0 mm 0.50 in12.7 mm
09:40 PM 48.7°F9.3°C 43.7°F6.5°C 83% 9.0 mph ENE14.5 kmh ENE 13.4 mph21.6 kmh 29.76 in1007.8 mb 0.00 in0.0 mm 0.00 in0.0 mm 0.50 in12.7 mm
09:45 PM 48.7°F9.3°C 43.7°F6.5°C 83% 7.9 mph NE12.7 kmh NE 10.4 mph16.7 kmh 29.76 in1007.8 mb 0.00 in0.0 mm 0.00 in0.0 mm 0.50 in12.7 mm
09:50 PM 48.7°F9.3°C 43.7°F6.5°C 83% 7.7 mph NE12.4 kmh NE 10.7 mph17.2 kmh 29.76 in1007.8 mb 0.00 in0.0 mm 0.00 in0.0 mm 0.50 in12.7 mm
09:55 PM 48.5°F9.2°C 43.5°F6.4°C 83% 7.9 mph ENE12.7 kmh ENE 10.7 mph17.2 kmh 29.76 in1007.8 mb 0.00 in0.0 mm 0.00 in0.0 mm 0.50 in12.7 mm
10:00 PM 48.5°F9.2°C 43.5°F6.4°C 83% 7.4 mph ENE11.9 kmh ENE 12.5 mph20.1 kmh 29.76 in1007.8 mb 0.00 in0.0 mm 0.00 in0.0 mm 0.50 in12.7 mm
10:05 PM 48.5°F9.2°C 43.5°F6.4°C 83% 8.5 mph E13.7 kmh E 13.1 mph21.1 kmh 29.76 in1007.8 mb 0.00 in0.0 mm 0.00 in0.0 mm 0.50 in12.7 mm
10:10 PM 48.5°F9.2°C 43.5°F6.4°C 83% 8.6 mph ENE13.8 kmh ENE 13.1 mph21.1 kmh 29.76 in1007.8 mb 0.00 in0.0 mm 0.00 in0.0 mm 0.50 in12.7 mm
10:15 PM 48.5°F9.2°C 43.5°F6.4°C 83% 8.6 mph ENE13.8 kmh ENE 13.1 mph21.1 kmh 29.76 in1007.8 mb 0.00 in0.0 mm 0.00 in0.0 mm 0.50 in12.7 mm
10:20 PM 48.5°F9.2°C 43.5°F6.4°C 83% 7.5 mph ENE12.1 kmh ENE 10.7 mph17.2 kmh 29.73 in1006.8 mb 0.00 in0.0 mm 0.00 in0.0 mm 0.50 in12.7 mm
10:25 PM 48.5°F9.2°C 43.5°F6.4°C 83% 6.7 mph ENE10.8 kmh ENE 8.6 mph13.8 kmh 29.73 in1006.8 mb 0.00 in0.0 mm 0.00 in0.0 mm 0.50 in12.7 mm
10:30 PM 48.5°F9.2°C 43.5°F6.4°C 83% 7.6 mph NE12.2 kmh NE 9.8 mph15.8 kmh 29.73 in1006.8 mb 0.00 in0.0 mm 0.00 in0.0 mm 0.50 in12.7 mm
10:35 PM 48.5°F9.2°C 43.5°F6.4°C 83% 8.9 mph ENE14.3 kmh ENE 13.4 mph21.6 kmh 29.73 in1006.8 mb 0.00 in0.0 mm 0.00 in0.0 mm 0.50 in12.7 mm
10:40 PM 48.5°F9.2°C 43.5°F6.4°C 83% 8.6 mph ENE13.8 kmh ENE 13.4 mph21.6 kmh 29.73 in1006.8 mb 0.00 in0.0 mm 0.00 in0.0 mm 0.50 in12.7 mm
10:45 PM 48.5°F9.2°C 43.5°F6.4°C 83% 7.6 mph NE12.2 kmh NE 10.1 mph16.3 kmh 29.73 in1006.8 mb 0.00 in0.0 mm 0.00 in0.0 mm 0.50 in12.7 mm
10:50 PM 48.5°F9.2°C 43.5°F6.4°C 83% 7.6 mph ENE12.2 kmh ENE 10.1 mph16.3 kmh 29.73 in1006.8 mb 0.00 in0.0 mm 0.00 in0.0 mm 0.50 in12.7 mm
10:55 PM 48.3°F9.1°C 43.4°F6.3°C 83% 7.8 mph ENE12.6 kmh ENE 10.7 mph17.2 kmh 29.73 in1006.8 mb 0.00 in0.0 mm 0.00 in0.0 mm 0.50 in12.7 mm
11:00 PM 48.3°F9.1°C 43.4°F6.3°C 83% 7.1 mph ENE11.4 kmh ENE 10.7 mph17.2 kmh 29.73 in1006.8 mb 0.00 in0.0 mm 0.00 in0.0 mm 0.42 in10.7 mm
11:05 PM 48.3°F9.1°C 43.4°F6.3°C 83% 7.2 mph ENE11.6 kmh ENE 10.4 mph16.7 kmh 29.76 in1007.8 mb 0.00 in0.0 mm 0.00 in0.0 mm 0.42 in10.7 mm
11:10 PM 48.3°F9.1°C 43.4°F6.3°C 83% 7.8 mph ENE12.6 kmh ENE 10.1 mph16.3 kmh 29.76 in1007.8 mb 0.00 in0.0 mm 0.00 in0.0 mm 0.42 in10.7 mm
11:15 PM 48.3°F9.1°C 43.4°F6.3°C 83% 8.4 mph NE13.5 kmh NE 11.3 mph18.2 kmh 29.76 in1007.8 mb 0.00 in0.0 mm 0.00 in0.0 mm 0.42 in10.7 mm
11:20 PM 48.3°F9.1°C 43.4°F6.3°C 83% 8.5 mph ENE13.7 kmh ENE 11.3 mph18.2 kmh 29.76 in1007.8 mb 0.00 in0.0 mm 0.00 in0.0 mm 0.42 in10.7 mm
11:25 PM 48.3°F9.1°C 43.4°F6.3°C 83% 7.6 mph NE12.2 kmh NE 11.3 mph18.2 kmh 29.76 in1007.8 mb 0.00 in0.0 mm 0.00 in0.0 mm 0.42 in10.7 mm
11:30 PM 48.3°F9.1°C 43.7°F6.5°C 84% 7.8 mph NE12.6 kmh NE 14.6 mph23.5 kmh 29.76 in1007.8 mb 0.00 in0.0 mm 0.00 in0.0 mm 0.42 in10.7 mm
11:35 PM 48.3°F9.1°C 43.7°F6.5°C 84% 9.0 mph NE14.5 kmh NE 14.6 mph23.5 kmh 29.76 in1007.8 mb 0.00 in0.0 mm 0.00 in0.0 mm 0.42 in10.7 mm
11:40 PM 48.3°F9.1°C 43.7°F6.5°C 84% 9.0 mph ENE14.5 kmh ENE 13.7 mph22.0 kmh 29.76 in1007.8 mb 0.00 in0.0 mm 0.00 in0.0 mm 0.42 in10.7 mm
11:45 PM 48.3°F9.1°C 43.7°F6.5°C 84% 8.6 mph ENE13.8 kmh ENE 13.7 mph22.0 kmh 29.76 in1007.8 mb 0.00 in0.0 mm 0.00 in0.0 mm 0.42 in10.7 mm
11:50 PM 48.3°F9.1°C 43.7°F6.5°C 84% 8.6 mph ENE13.8 kmh ENE 13.7 mph22.0 kmh 29.76 in1007.8 mb 0.00 in0.0 mm 0.00 in0.0 mm 0.42 in10.7 mm
11:55 PM 48.3°F9.1°C 43.7°F6.5°C 84% 7.9 mph ENE12.7 kmh ENE 10.4 mph16.7 kmh 29.76 in1007.8 mb 0.00 in0.0 mm 0.00 in0.0 mm 0.42 in10.7 mm